createdAt,value
2018-05-10T00:02:02.782Z,19.90
2018-05-10T00:04:30.300Z,19.90
2018-05-10T00:06:57.806Z,19.80
2018-05-10T00:09:25.454Z,19.80
2018-05-10T00:11:53.213Z,19.70
2018-05-10T00:14:20.727Z,19.70
2018-05-10T00:16:48.226Z,19.70
2018-05-10T00:19:15.885Z,19.70
2018-05-10T00:21:43.390Z,19.60
2018-05-10T00:24:10.905Z,19.60
2018-05-10T00:26:38.399Z,19.60
2018-05-10T00:29:06.941Z,19.60
2018-05-10T00:31:34.713Z,19.60
2018-05-10T00:34:02.218Z,19.50
2018-05-10T00:36:30.074Z,19.50
2018-05-10T00:38:58.359Z,19.40
2018-05-10T00:41:26.075Z,19.40
2018-05-10T00:43:53.565Z,19.30
2018-05-10T00:46:22.210Z,19.30
2018-05-10T00:48:49.938Z,19.30
2018-05-10T00:51:17.442Z,19.20
2018-05-10T00:53:45.177Z,19.20
2018-05-10T00:56:12.970Z,19.20
2018-05-10T00:58:40.474Z,19.00
2018-05-10T01:01:08.180Z,19.00
2018-05-10T01:03:35.941Z,19.00
2018-05-10T01:06:03.568Z,18.90
2018-05-10T01:08:31.161Z,18.90
2018-05-10T01:10:58.670Z,19.00
2018-05-10T01:13:26.396Z,18.90
2018-05-10T01:15:53.894Z,18.80
2018-05-10T01:18:21.598Z,18.80
2018-05-10T01:20:49.134Z,18.70
2018-05-10T01:23:16.818Z,18.80
2018-05-10T01:25:44.590Z,18.80
2018-05-10T01:28:12.100Z,18.80
2018-05-10T01:30:39.802Z,18.80
2018-05-10T01:33:07.334Z,18.80
2018-05-10T01:35:46.571Z,18.70
2018-05-10T01:38:14.084Z,18.60
2018-05-10T01:40:41.609Z,18.60
2018-05-10T01:43:09.123Z,18.60
2018-05-10T01:45:37.147Z,18.60
2018-05-10T01:48:04.683Z,18.60
2018-05-10T01:50:32.267Z,18.50
2018-05-10T01:52:59.814Z,18.50
2018-05-10T01:55:27.577Z,18.50
2018-05-10T01:57:55.097Z,18.50
2018-05-10T02:00:22.718Z,18.40
2018-05-10T02:02:50.257Z,18.30
2018-05-10T02:05:17.764Z,18.40
2018-05-10T02:07:45.463Z,18.40
2018-05-10T02:10:13.247Z,18.40
2018-05-10T02:12:41.000Z,18.40
2018-05-10T02:15:08.516Z,18.40
2018-05-10T02:17:36.199Z,18.30
2018-05-10T02:20:03.989Z,18.40
2018-05-10T02:22:31.495Z,18.30
2018-05-10T02:24:59.201Z,18.40
2018-05-10T02:27:26.982Z,18.40
2018-05-10T02:29:54.485Z,18.30
2018-05-10T02:32:21.986Z,18.40
2018-05-10T02:34:49.495Z,18.40
2018-05-10T02:37:17.074Z,18.30
2018-05-10T02:39:44.646Z,18.30
2018-05-10T02:42:12.290Z,18.30
2018-05-10T02:44:39.806Z,18.20
2018-05-10T02:47:08.091Z,18.30
2018-05-10T02:49:35.601Z,18.30
2018-05-10T02:52:03.118Z,18.30
2018-05-10T02:54:30.631Z,18.30
2018-05-10T02:56:58.338Z,18.30
2018-05-10T02:59:26.054Z,18.30
2018-05-10T03:01:53.815Z,18.30
2018-05-10T03:04:21.339Z,18.30
2018-05-10T03:06:49.008Z,18.20
2018-05-10T03:09:16.806Z,18.30
2018-05-10T03:11:44.566Z,18.20
2018-05-10T03:14:12.100Z,18.20
2018-05-10T03:16:39.605Z,18.10
2018-05-10T03:19:07.238Z,18.10
2018-05-10T03:21:34.759Z,18.10
2018-05-10T03:24:02.267Z,18.10
2018-05-10T03:26:29.787Z,18.00
2018-05-10T03:28:57.501Z,18.00
2018-05-10T03:31:25.143Z,17.90
2018-05-10T03:33:52.647Z,17.80
2018-05-10T03:36:20.166Z,17.70
2018-05-10T03:38:47.818Z,17.60
2018-05-10T03:41:15.334Z,17.70
2018-05-10T03:43:42.847Z,17.60
2018-05-10T03:46:10.369Z,17.50
2018-05-10T03:48:37.873Z,17.60
2018-05-10T03:51:05.393Z,17.60
2018-05-10T03:53:32.894Z,17.70
2018-05-10T03:56:01.241Z,17.70
2018-05-10T03:58:29.001Z,17.70
2018-05-10T04:00:56.509Z,17.70
2018-05-10T04:03:35.947Z,17.60
2018-05-10T04:06:16.290Z,17.50
2018-05-10T04:08:55.701Z,17.60
2018-05-10T04:11:26.150Z,17.60
2018-05-10T04:13:53.665Z,17.50
2018-05-10T04:16:21.167Z,17.60
2018-05-10T04:18:51.112Z,17.50
2018-05-10T04:21:18.786Z,17.50
2018-05-10T04:23:46.437Z,17.60
2018-05-10T04:26:14.711Z,17.40
2018-05-10T04:28:42.407Z,17.40
2018-05-10T04:31:09.929Z,17.40
2018-05-10T04:33:37.630Z,17.40
2018-05-10T04:36:05.393Z,17.40
2018-05-10T04:38:32.923Z,17.40
2018-05-10T04:41:00.426Z,17.50
2018-05-10T04:43:28.069Z,17.60
2018-05-10T04:45:55.588Z,17.70
2018-05-10T04:48:23.289Z,17.70
2018-05-10T04:50:50.805Z,17.80
2018-05-10T04:53:18.506Z,17.80
2018-05-10T04:55:46.029Z,17.80
2018-05-10T04:58:13.650Z,17.90
2018-05-10T05:00:42.108Z,18.10
2018-05-10T05:03:09.877Z,18.10
2018-05-10T05:05:37.638Z,18.10
2018-05-10T05:08:05.158Z,18.20
2018-05-10T05:10:32.849Z,18.20
2018-05-10T05:13:00.365Z,18.20
2018-05-10T05:15:28.038Z,18.30
2018-05-10T05:17:55.845Z,18.30
2018-05-10T05:20:23.350Z,18.30
2018-05-10T05:22:51.042Z,18.40
2018-05-10T05:25:18.826Z,18.40
2018-05-10T05:27:46.346Z,18.30
2018-05-10T05:30:14.007Z,18.40
2018-05-10T05:32:41.813Z,18.40
2018-05-10T05:35:09.310Z,18.50
2018-05-10T05:37:37.031Z,18.60
2018-05-10T05:40:04.789Z,18.50
2018-05-10T05:42:32.554Z,18.60
2018-05-10T05:45:00.329Z,18.60
2018-05-10T05:47:27.847Z,18.60
2018-05-10T05:49:55.535Z,18.70
2018-05-10T05:52:23.062Z,18.80
2018-05-10T05:54:50.722Z,19.00
2018-05-10T05:57:18.231Z,19.20
2018-05-10T05:59:45.854Z,19.30
2018-05-10T06:02:13.370Z,19.40
2018-05-10T06:04:40.906Z,19.40
2018-05-10T06:07:08.412Z,19.50
2018-05-10T06:09:36.087Z,19.50
2018-05-10T06:12:03.602Z,19.50
2018-05-10T06:14:31.340Z,19.50
2018-05-10T06:16:58.847Z,19.50
2018-05-10T06:19:26.554Z,19.60
2018-05-10T06:21:54.070Z,19.60
2018-05-10T06:24:21.741Z,19.60
2018-05-10T06:26:49.534Z,19.70
2018-05-10T06:29:17.042Z,19.80
2018-05-10T06:31:44.763Z,19.80
2018-05-10T06:34:12.276Z,20.00
2018-05-10T06:36:39.954Z,20.10
2018-05-10T06:39:07.466Z,20.20
2018-05-10T06:41:35.260Z,20.50
2018-05-10T06:44:02.727Z,20.50
2018-05-10T06:46:30.381Z,20.60
2018-05-10T06:48:57.889Z,20.60
2018-05-10T06:51:25.405Z,20.60
2018-05-10T06:53:53.414Z,20.70
2018-05-10T06:56:20.925Z,20.80
2018-05-10T06:58:48.598Z,20.80
2018-05-10T07:01:16.097Z,20.90
2018-05-10T07:03:43.626Z,20.90
2018-05-10T07:06:11.300Z,20.90
2018-05-10T07:08:38.818Z,20.90
2018-05-10T07:11:06.550Z,21.00
2018-05-10T07:13:34.839Z,20.90
2018-05-10T07:16:02.349Z,20.90
2018-05-10T07:18:29.867Z,20.90
2018-05-10T07:20:57.578Z,21.00
2018-05-10T07:23:25.345Z,21.10
2018-05-10T07:25:52.845Z,21.30
2018-05-10T07:28:20.368Z,21.30
2018-05-10T07:30:48.025Z,21.50
2018-05-10T07:33:15.773Z,21.80
2018-05-10T07:35:43.542Z,22.10
2018-05-10T07:38:11.064Z,22.30
2018-05-10T07:40:38.727Z,22.40
2018-05-10T07:43:06.236Z,22.50
2018-05-10T07:45:35.527Z,22.40
2018-05-10T07:48:03.038Z,22.40
2018-05-10T07:50:30.712Z,22.30
2018-05-10T07:52:58.210Z,22.40
2018-05-10T07:55:27.346Z,22.60
2018-05-10T07:57:54.861Z,22.50
2018-05-10T08:00:22.457Z,22.70
2018-05-10T08:02:50.188Z,22.60
2018-05-10T08:05:18.102Z,22.40
2018-05-10T08:07:45.698Z,22.30
2018-05-10T08:10:13.497Z,22.10
2018-05-10T08:12:40.991Z,22.10
2018-05-10T08:15:08.654Z,22.20
2018-05-10T08:17:36.162Z,22.20
2018-05-10T08:20:03.791Z,22.40
2018-05-10T08:22:31.301Z,22.70
2018-05-10T08:24:59.588Z,23.10
2018-05-10T08:27:37.009Z,23.10
2018-05-10T08:30:04.522Z,23.30
2018-05-10T08:32:32.251Z,23.20
2018-05-10T08:35:00.011Z,23.00
2018-05-10T08:37:27.562Z,23.00
2018-05-10T08:39:55.095Z,23.00
2018-05-10T08:42:22.596Z,22.90
2018-05-10T08:44:50.141Z,22.80
2018-05-10T08:47:17.664Z,22.80
2018-05-10T08:49:45.326Z,22.80
2018-05-10T08:52:12.830Z,22.80
2018-05-10T08:54:40.361Z,22.70
2018-05-10T08:57:07.867Z,22.90
2018-05-10T08:59:36.147Z,23.00
2018-05-10T09:02:03.870Z,22.90
2018-05-10T09:04:31.642Z,23.00
2018-05-10T09:06:59.154Z,23.00
2018-05-10T09:09:26.838Z,22.90
2018-05-10T09:11:54.330Z,22.80
2018-05-10T09:14:21.966Z,22.70
2018-05-10T09:16:49.473Z,22.70
2018-05-10T09:19:17.883Z,22.70
2018-05-10T09:21:45.674Z,22.70
2018-05-10T09:24:13.306Z,22.80
2018-05-10T09:26:40.794Z,22.80
2018-05-10T09:29:08.420Z,22.90
2018-05-10T09:31:36.099Z,22.90
2018-05-10T09:34:03.594Z,22.80
2018-05-10T09:36:31.096Z,22.80
2018-05-10T09:38:58.613Z,22.90
2018-05-10T09:41:26.123Z,22.90
2018-05-10T09:43:53.711Z,23.00
2018-05-10T09:46:21.209Z,23.10
2018-05-10T09:48:49.244Z,23.30
2018-05-10T09:51:18.534Z,23.40
2018-05-10T09:53:46.286Z,23.40
2018-05-10T09:56:13.804Z,23.80
2018-05-10T09:58:41.433Z,23.80
2018-05-10T10:01:08.933Z,23.90
2018-05-10T10:03:36.727Z,23.90
2018-05-10T10:06:04.241Z,23.80
2018-05-10T10:08:31.924Z,23.80
2018-05-10T10:10:59.733Z,24.00
2018-05-10T10:13:27.242Z,24.40
2018-05-10T10:15:54.815Z,24.70
2018-05-10T10:18:22.318Z,24.70
2018-05-10T10:20:49.837Z,24.70
2018-05-10T10:23:17.607Z,24.60
2018-05-10T10:25:45.376Z,24.40
2018-05-10T10:28:12.873Z,24.30
2018-05-10T10:30:40.590Z,24.30
2018-05-10T10:33:08.099Z,24.40
2018-05-10T10:35:35.650Z,24.60
2018-05-10T10:38:04.138Z,25.00
2018-05-10T10:40:32.566Z,25.00
2018-05-10T10:43:00.424Z,25.00
2018-05-10T10:45:28.161Z,24.90
2018-05-10T10:47:55.590Z,24.80
2018-05-10T10:50:23.285Z,25.00
2018-05-10T10:52:50.880Z,25.10
2018-05-10T10:55:18.311Z,25.00
2018-05-10T10:57:45.995Z,25.00
2018-05-10T11:00:13.510Z,24.90
2018-05-10T11:02:41.223Z,25.00
2018-05-10T11:05:08.737Z,25.10
2018-05-10T11:07:36.403Z,25.30
2018-05-10T11:10:04.209Z,25.50
2018-05-10T11:12:33.229Z,25.60
2018-05-10T11:15:00.739Z,25.60
2018-05-10T11:17:28.250Z,25.80
2018-05-10T11:19:56.526Z,26.00
2018-05-10T11:22:24.049Z,26.00
2018-05-10T11:24:51.568Z,26.10
2018-05-10T11:27:19.144Z,26.10
2018-05-10T11:29:46.603Z,26.00
2018-05-10T11:32:14.172Z,26.20
2018-05-10T11:34:41.846Z,26.20
2018-05-10T11:37:09.596Z,26.10
2018-05-10T11:39:37.372Z,25.30
2018-05-10T11:42:05.132Z,25.20
2018-05-10T11:44:32.978Z,25.10
2018-05-10T11:47:00.662Z,24.90
2018-05-10T11:49:28.208Z,24.70
2018-05-10T11:51:55.869Z,24.60
2018-05-10T11:54:23.605Z,24.60
2018-05-10T11:56:51.116Z,24.50
2018-05-10T11:59:18.630Z,24.60
2018-05-10T12:01:46.286Z,24.60
2018-05-10T12:04:13.798Z,24.60
2018-05-10T12:06:41.314Z,24.60
2018-05-10T12:09:08.841Z,24.50
2018-05-10T12:11:37.115Z,23.90
2018-05-10T12:14:04.806Z,23.90
2018-05-10T12:16:32.586Z,23.90
2018-05-10T12:19:00.101Z,23.80
2018-05-10T12:21:27.610Z,23.70
2018-05-10T12:23:55.246Z,23.70
2018-05-10T12:26:22.766Z,23.70
2018-05-10T12:28:50.296Z,23.70
2018-05-10T12:31:17.833Z,23.70
2018-05-10T12:33:45.475Z,23.50
2018-05-10T12:36:13.157Z,23.50
2018-05-10T12:38:40.662Z,23.40
2018-05-10T12:41:08.389Z,23.50
2018-05-10T12:43:36.154Z,23.60
2018-05-10T12:46:03.786Z,23.30
2018-05-10T12:48:31.338Z,22.60
2018-05-10T12:50:59.450Z,21.80
2018-05-10T12:53:28.470Z,21.10
2018-05-10T12:55:56.191Z,21.10
2018-05-10T12:58:23.960Z,20.50
2018-05-10T13:00:51.776Z,20.10
2018-05-10T13:03:19.221Z,20.10
2018-05-10T13:05:46.950Z,19.90
2018-05-10T13:08:14.597Z,19.60
2018-05-10T13:10:42.176Z,19.50
2018-05-10T13:13:09.954Z,19.40
2018-05-10T13:15:37.667Z,19.50
2018-05-10T13:18:05.454Z,19.40
2018-05-10T13:20:32.970Z,19.20
2018-05-10T13:23:00.490Z,19.10
2018-05-10T13:25:28.153Z,19.10
2018-05-10T13:27:55.890Z,18.90
2018-05-10T13:30:23.426Z,18.60
2018-05-10T13:32:51.123Z,18.50
2018-05-10T13:35:18.651Z,18.40
2018-05-10T13:37:46.337Z,18.40
2018-05-10T13:40:13.851Z,18.40
2018-05-10T13:42:41.507Z,18.60
2018-05-10T13:45:09.069Z,18.60
2018-05-10T13:47:36.801Z,18.50
2018-05-10T13:50:04.526Z,18.20
2018-05-10T13:52:32.047Z,18.20
2018-05-10T13:54:59.558Z,18.10
2018-05-10T13:57:27.218Z,18.00
2018-05-10T13:59:54.740Z,18.10
2018-05-10T14:02:22.413Z,18.00
2018-05-10T14:04:49.935Z,17.90
2018-05-10T14:07:17.480Z,17.90
2018-05-10T14:09:45.006Z,17.90
2018-05-10T14:12:12.535Z,17.80
2018-05-10T14:14:40.558Z,17.80
2018-05-10T14:17:08.098Z,17.80
2018-05-10T14:19:35.598Z,17.90
2018-05-10T14:22:03.128Z,18.00
2018-05-10T14:24:30.776Z,17.90
2018-05-10T14:26:58.550Z,17.90
2018-05-10T14:29:26.313Z,17.90
2018-05-10T14:31:53.849Z,17.70
2018-05-10T14:34:21.491Z,17.80
2018-05-10T14:36:49.781Z,17.70
2018-05-10T14:39:17.305Z,17.80
2018-05-10T14:41:44.825Z,17.80
2018-05-10T14:44:12.339Z,17.80
2018-05-10T14:46:40.097Z,17.70
2018-05-10T14:49:07.814Z,17.70
2018-05-10T14:51:35.343Z,17.50
2018-05-10T14:54:02.899Z,17.30
2018-05-10T14:56:30.770Z,17.20
2018-05-10T14:58:58.308Z,17.10
2018-05-10T15:01:25.970Z,17.10
2018-05-10T15:03:53.487Z,16.90
2018-05-10T15:06:21.016Z,16.90
2018-05-10T15:08:48.535Z,16.80
2018-05-10T15:11:16.051Z,16.80
2018-05-10T15:13:43.558Z,16.70
2018-05-10T15:16:11.088Z,16.70
2018-05-10T15:18:39.372Z,16.50
2018-05-10T15:21:07.189Z,16.40
2018-05-10T15:23:34.785Z,16.30
2018-05-10T15:26:02.318Z,16.30
2018-05-10T15:28:30.605Z,16.10
2018-05-10T15:30:59.011Z,16.10
2018-05-10T15:33:26.526Z,16.00
2018-05-10T15:35:54.078Z,16.00
2018-05-10T15:38:21.834Z,15.90
2018-05-10T15:40:49.351Z,15.70
2018-05-10T15:43:16.867Z,15.80
2018-05-10T15:45:44.385Z,15.80
2018-05-10T15:48:11.904Z,15.80
2018-05-10T15:50:39.410Z,15.80
2018-05-10T15:53:07.064Z,15.90
2018-05-10T15:55:34.555Z,16.00
2018-05-10T15:58:02.086Z,15.90
2018-05-10T16:00:29.599Z,15.80
2018-05-10T16:02:57.121Z,15.70
2018-05-10T16:05:24.755Z,15.60
2018-05-10T16:07:52.261Z,15.60
2018-05-10T16:10:20.015Z,15.50
2018-05-10T16:12:47.544Z,15.40
2018-05-10T16:15:15.230Z,15.20
2018-05-10T16:17:42.752Z,15.10
2018-05-10T16:20:10.261Z,15.10
2018-05-10T16:22:37.898Z,14.90
2018-05-10T16:25:06.310Z,15.10
2018-05-10T16:27:34.007Z,15.00
2018-05-10T16:30:01.798Z,14.70
2018-05-10T16:32:29.306Z,14.90
2018-05-10T16:34:57.018Z,15.00
2018-05-10T16:37:24.550Z,15.10
2018-05-10T16:39:52.785Z,15.00
2018-05-10T16:42:20.314Z,14.90
2018-05-10T16:44:48.096Z,14.70
2018-05-10T16:47:15.614Z,14.70
2018-05-10T16:49:43.290Z,14.80
2018-05-10T16:52:10.818Z,14.60
2018-05-10T16:54:38.322Z,14.50
2018-05-10T16:57:05.835Z,14.70
2018-05-10T16:59:33.422Z,14.70
2018-05-10T17:02:01.190Z,14.70
2018-05-10T17:04:28.715Z,14.70
2018-05-10T17:06:56.590Z,14.80
2018-05-10T17:09:24.181Z,14.60
2018-05-10T17:11:51.926Z,14.50
2018-05-10T17:14:19.694Z,14.70
2018-05-10T17:16:47.211Z,14.60
2018-05-10T17:19:14.718Z,14.40
2018-05-10T17:21:42.231Z,14.40
2018-05-10T17:24:09.834Z,14.30
2018-05-10T17:26:37.598Z,14.20
2018-05-10T17:29:05.114Z,14.10
2018-05-10T17:31:32.617Z,14.10
2018-05-10T17:34:00.126Z,14.10
2018-05-10T17:36:27.628Z,14.20
2018-05-10T17:38:55.164Z,14.30
2018-05-10T17:41:22.954Z,14.00
2018-05-10T17:43:50.471Z,13.80
2018-05-10T17:46:17.982Z,13.70
2018-05-10T17:48:45.599Z,13.80
2018-05-10T17:51:13.098Z,13.90
2018-05-10T17:53:40.623Z,14.00
2018-05-10T17:56:08.215Z,13.80
2018-05-10T17:58:35.764Z,13.70
2018-05-10T18:01:03.351Z,13.60
2018-05-10T18:03:30.978Z,13.60
2018-05-10T18:05:58.748Z,13.60
2018-05-10T18:08:26.502Z,13.60
2018-05-10T18:10:54.010Z,13.60
2018-05-10T18:13:21.539Z,13.60
2018-05-10T18:15:49.146Z,13.70
2018-05-10T18:18:16.666Z,13.60
2018-05-10T18:20:44.170Z,13.60
2018-05-10T18:23:11.743Z,13.60
2018-05-10T18:25:40.199Z,13.50
2018-05-10T18:28:07.717Z,13.50
2018-05-10T18:30:35.544Z,13.50
2018-05-10T18:33:03.050Z,13.60
2018-05-10T18:35:31.606Z,13.60
2018-05-10T18:37:59.126Z,13.60
2018-05-10T18:40:26.666Z,13.80
2018-05-10T18:42:54.198Z,13.70
2018-05-10T18:45:21.730Z,13.70
2018-05-10T18:47:49.234Z,13.70
2018-05-10T18:50:16.961Z,13.70
2018-05-10T18:52:44.470Z,13.70
2018-05-10T18:55:12.124Z,13.80
2018-05-10T18:57:39.622Z,13.80
2018-05-10T19:00:07.418Z,13.60
2018-05-10T19:02:34.935Z,13.60
2018-05-10T19:05:02.585Z,13.50
2018-05-10T19:07:30.414Z,13.50
2018-05-10T19:09:57.906Z,13.50
2018-05-10T19:12:25.609Z,13.60
2018-05-10T19:14:53.139Z,13.50
2018-05-10T19:17:20.818Z,13.60
2018-05-10T19:19:48.357Z,13.50
2018-05-10T19:22:15.860Z,13.40
2018-05-10T19:24:43.498Z,13.50
2018-05-10T19:27:11.011Z,13.50
2018-05-10T19:29:38.714Z,13.60
2018-05-10T19:32:06.224Z,13.60
2018-05-10T19:34:33.736Z,13.50
2018-05-10T19:37:01.984Z,13.40
2018-05-10T19:39:29.490Z,13.40
2018-05-10T19:41:57.231Z,13.50
2018-05-10T19:44:24.767Z,13.50
2018-05-10T19:46:52.258Z,13.40
2018-05-10T19:49:19.783Z,13.50
2018-05-10T19:51:47.364Z,13.40
2018-05-10T19:54:14.871Z,13.50
2018-05-10T19:56:42.389Z,13.50
2018-05-10T19:59:09.899Z,13.50
2018-05-10T20:01:37.485Z,13.50
2018-05-10T20:04:05.008Z,13.50
2018-05-10T20:06:32.555Z,13.50
2018-05-10T20:09:00.830Z,13.40
2018-05-10T20:11:28.333Z,13.40
2018-05-10T20:13:55.844Z,13.40
2018-05-10T20:16:24.122Z,13.10
2018-05-10T20:18:51.637Z,13.20
2018-05-10T20:21:19.290Z,13.20
2018-05-10T20:23:47.050Z,13.30
2018-05-10T20:26:14.814Z,13.30
2018-05-10T20:28:42.324Z,13.30
2018-05-10T20:31:10.038Z,13.20
2018-05-10T20:33:37.545Z,13.20
2018-05-10T20:36:05.253Z,13.10
2018-05-10T20:38:32.753Z,13.10
2018-05-10T20:41:00.473Z,13.10
2018-05-10T20:43:28.238Z,13.20
2018-05-10T20:45:56.006Z,13.20
2018-05-10T20:48:23.510Z,13.10
2018-05-10T20:50:51.222Z,13.10
2018-05-10T20:53:18.744Z,13.10
2018-05-10T20:55:46.279Z,13.00
2018-05-10T20:58:14.554Z,12.90
2018-05-10T21:00:42.070Z,12.90
2018-05-10T21:05:42.686Z,12.70
2018-05-10T21:08:10.227Z,12.80
2018-05-10T21:10:37.938Z,12.80
2018-05-10T21:13:05.846Z,12.90
2018-05-10T21:15:34.574Z,12.80
2018-05-10T21:18:02.151Z,12.70
2018-05-10T21:20:29.692Z,12.70
2018-05-10T21:22:58.451Z,12.70
2018-05-10T21:25:25.990Z,12.70
2018-05-10T21:27:53.489Z,12.60
2018-05-10T21:30:21.289Z,12.60
2018-05-10T21:32:48.872Z,12.70
2018-05-10T21:35:16.504Z,12.80
2018-05-10T21:37:44.167Z,12.90
2018-05-10T21:40:11.756Z,12.90
2018-05-10T21:42:39.396Z,12.80
2018-05-10T21:45:06.934Z,12.70
2018-05-10T21:47:34.444Z,12.80
2018-05-10T21:50:04.784Z,12.80
2018-05-10T21:52:32.383Z,12.80
2018-05-10T21:54:59.971Z,12.70
2018-05-10T21:57:27.506Z,12.70
2018-05-10T21:59:55.223Z,12.70
2018-05-10T22:02:23.750Z,12.70
2018-05-10T22:04:51.254Z,12.70
2018-05-10T22:07:19.679Z,12.50
2018-05-10T22:09:47.393Z,12.50
2018-05-10T22:12:15.251Z,12.40
2018-05-10T22:14:42.826Z,12.60
2018-05-10T22:17:10.338Z,12.60
2018-05-10T22:19:37.960Z,12.60
2018-05-10T22:22:05.527Z,12.70
2018-05-10T22:24:33.113Z,12.60
2018-05-10T22:27:00.530Z,12.50
2018-05-10T22:29:28.030Z,12.60
2018-05-10T22:31:55.757Z,12.60
2018-05-10T22:34:23.536Z,12.50
2018-05-10T22:36:51.029Z,12.50
2018-05-10T22:39:18.566Z,12.50
2018-05-10T22:41:46.202Z,12.50
2018-05-10T22:44:13.728Z,12.50
2018-05-10T22:46:41.426Z,12.60
2018-05-10T22:49:08.925Z,12.60
2018-05-10T22:51:36.646Z,12.70
2018-05-10T22:54:04.158Z,12.60
2018-05-10T22:56:31.861Z,12.50
2018-05-10T22:58:59.372Z,12.60
2018-05-10T23:01:27.054Z,12.70
2018-05-10T23:03:54.562Z,12.60
2018-05-10T23:06:22.074Z,12.60
2018-05-10T23:08:49.754Z,12.60
2018-05-10T23:11:17.270Z,12.60
2018-05-10T23:13:44.779Z,12.60
2018-05-10T23:16:12.302Z,12.60
2018-05-10T23:18:39.886Z,12.50
2018-05-10T23:21:07.513Z,12.50
2018-05-10T23:23:35.018Z,12.60
2018-05-10T23:26:02.541Z,12.60
2018-05-10T23:28:30.326Z,12.70
2018-05-10T23:30:57.842Z,12.60
2018-05-10T23:33:25.545Z,12.70
2018-05-10T23:35:53.084Z,12.60
2018-05-10T23:38:20.590Z,12.60
2018-05-10T23:40:48.142Z,12.60
2018-05-10T23:43:15.657Z,12.60
2018-05-10T23:45:43.450Z,12.60
2018-05-10T23:48:11.391Z,12.50
2018-05-10T23:50:38.974Z,12.60
2018-05-10T23:53:06.494Z,12.50
2018-05-10T23:55:34.117Z,12.60
2018-05-10T23:58:02.517Z,12.50
